Time;durP1;ratioP1;P1;durP2;ratioP2;P2;SDS_P1;SDS_P2;PMS_P1;PMS_P2;Temp;Humidity;BMP_temperature;BMP_pressure;BME280_temperature;BME280_humidity;BME280_pressure;Samples;Min_cycle;Max_cycle;Signal;HPM_P1;HPM_P2
2021/03/16 00:00:14;;;;;;;16.83;8.00;;;;;;;15.61;51.80;101213.94;5084157;28;20498;-71
2021/03/16 00:02:41;;;;;;;19.43;9.07;;;;;;;15.63;51.84;101219.28;5084009;28;20050;-81
2021/03/16 00:05:08;;;;;;;16.90;8.77;;;;;;;15.58;52.14;101222.13;5084861;28;20476;-82
2021/03/16 00:07:36;;;;;;;18.97;9.50;;;;;;;15.55;52.27;101220.75;5079939;28;20120;-73
2021/03/16 00:10:03;;;;;;;16.83;8.87;;;;;;;15.67;52.13;101219.56;5088581;28;20044;-84
2021/03/16 00:12:30;;;;;;;13.80;7.83;;;;;;;15.58;52.29;101222.97;5086135;28;20886;-64
2021/03/16 00:14:56;;;;;;;20.30;9.57;;;;;;;15.50;52.66;101214.34;5090727;28;20040;-81
2021/03/16 00:17:22;;;;;;;15.60;8.63;;;;;;;15.45;53.01;101214.38;5089560;28;20052;-74
2021/03/16 00:19:50;;;;;;;17.27;8.63;;;;;;;15.51;53.06;101216.84;5087506;28;20048;-71
2021/03/16 00:22:17;;;;;;;19.43;9.63;;;;;;;15.49;53.17;101218.31;5090212;28;20040;-70
2021/03/16 00:24:44;;;;;;;17.30;8.80;;;;;;;15.48;52.92;101206.19;5080452;28;20040;-73
2021/03/16 00:27:10;;;;;;;23.00;10.77;;;;;;;15.59;52.74;101218.19;5087791;28;20044;-80
2021/03/16 00:29:37;;;;;;;16.80;9.30;;;;;;;15.57;52.60;101209.19;5085814;28;20470;-81
2021/03/16 00:32:03;;;;;;;25.40;11.87;;;;;;;15.64;52.39;101216.16;5084666;28;20048;-79
2021/03/16 00:34:30;;;;;;;22.23;10.13;;;;;;;15.48;52.87;101208.16;5089574;28;20146;-79
2021/03/16 00:36:56;;;;;;;21.80;9.23;;;;;;;15.40;53.13;101207.69;5085219;28;20060;-80
2021/03/16 00:39:23;;;;;;;18.67;9.37;;;;;;;15.40;53.13;101213.31;5088783;28;20508;-77
2021/03/16 00:41:49;;;;;;;22.30;9.30;;;;;;;15.40;53.15;101210.50;5081320;28;20047;-72
2021/03/16 00:44:16;;;;;;;18.20;10.23;;;;;;;15.01;53.20;101142.22;5086693;28;20040;-74
2021/03/16 00:46:42;;;;;;;15.83;9.37;;;;;;;14.87;53.47;101159.81;5087548;28;20047;-75
2021/03/16 00:49:08;;;;;;;20.60;9.20;;;;;;;14.96;53.98;101192.91;5085520;28;20142;-74
2021/03/16 00:51:35;;;;;;;23.60;11.00;;;;;;;14.84;54.82;101213.81;5088174;28;20044;-76
2021/03/16 00:54:01;;;;;;;19.03;8.90;;;;;;;14.56;55.39;101189.28;5089186;28;20051;-75
2021/03/16 00:56:27;;;;;;;18.43;9.67;;;;;;;14.19;55.86;101148.50;5088297;28;20461;-75
2021/03/16 00:58:53;;;;;;;23.40;11.07;;;;;;;14.60;55.81;101207.25;5076423;28;20055;-76
2021/03/16 01:01:20;;;;;;;17.93;8.90;;;;;;;14.63;55.55;101206.66;5087888;28;20044;-77
2021/03/16 01:03:46;;;;;;;17.83;9.43;;;;;;;14.69;55.29;101208.31;5080782;28;20551;-75
2021/03/16 01:06:13;;;;;;;24.23;11.53;;;;;;;14.59;55.34;101199.94;5079515;28;20490;-75
2021/03/16 01:08:39;;;;;;;21.67;9.77;;;;;;;14.71;55.16;101202.41;5080807;28;20576;-71
2021/03/16 01:11:06;;;;;;;19.43;9.90;;;;;;;14.73;55.05;101200.97;5085040;28;20051;-71
2021/03/16 01:13:33;;;;;;;22.40;12.00;;;;;;;14.89;54.51;101205.34;5090092;28;20047;-70
2021/03/16 01:15:59;;;;;;;17.70;10.67;;;;;;;14.94;54.18;101204.47;5086771;28;20043;-70
2021/03/16 01:18:26;;;;;;;16.80;9.63;;;;;;;14.99;53.77;101204.41;5087686;28;20520;-71
2021/03/16 01:20:53;;;;;;;23.60;10.10;;;;;;;15.03;53.61;101205.50;5088157;28;20055;-73
2021/03/16 01:23:20;;;;;;;22.30;10.03;;;;;;;15.05;53.38;101208.88;5083681;28;20039;-75
2021/03/16 01:26:04;;;;;;;21.70;11.17;;;;;;;15.08;53.31;101211.09;5080974;28;22682;-74
2021/03/16 01:28:30;;;;;;;21.77;10.23;;;;;;;15.00;53.47;101202.44;5088149;28;20121;-73
2021/03/16 01:30:57;;;;;;;15.77;9.50;;;;;;;15.01;53.60;101223.78;5082940;28;20125;-73
2021/03/16 01:33:24;;;;;;;17.20;9.50;;;;;;;14.89;53.84;101207.31;5085261;28;20048;-76
2021/03/16 01:35:51;;;;;;;15.30;8.20;;;;;;;14.68;54.04;101206.63;5077179;28;20056;-75
2021/03/16 01:38:17;;;;;;;16.60;7.43;;;;;;;14.15;54.71;101153.84;5085332;28;20511;-78
2021/03/16 01:40:44;;;;;;;9.23;6.13;;;;;;;14.18;54.94;101188.94;5079243;28;20051;-73
2021/03/16 01:43:16;;;;;;;10.83;6.70;;;;;;;14.33;55.02;101213.31;5083810;28;20051;-78
2021/03/16 01:45:45;;;;;;;16.67;7.77;;;;;;;14.23;55.49;101209.41;5086507;28;20377;-77
2021/03/16 01:48:13;;;;;;;19.00;8.77;;;;;;;14.23;55.21;101203.78;5071319;28;20040;-78
2021/03/16 01:50:41;;;;;;;12.70;5.97;;;;;;;14.25;55.32;101205.47;5088711;28;20503;-79
2021/03/16 01:53:08;;;;;;;14.03;5.77;;;;;;;14.24;55.15;101215.88;5086260;28;20039;-79
2021/03/16 01:55:35;;;;;;;6.40;4.47;;;;;;;14.08;55.21;101203.84;5087386;28;20068;-78
2021/03/16 01:58:02;;;;;;;12.23;6.13;;;;;;;14.25;54.84;101223.16;5086324;28;20095;-78
2021/03/16 02:00:41;;;;;;;7.77;5.53;;;;;;;14.27;54.73;101215.28;5082965;28;20131;-78
2021/03/16 02:03:11;;;;;;;6.60;4.23;;;;;;;14.27;54.34;101206.03;5089784;28;20044;-78
2021/03/16 02:05:40;;;;;;;7.67;4.10;;;;;;;14.39;54.01;101206.50;5088229;28;20051;-77
2021/03/16 02:08:33;;;;;;;9.10;5.00;;;;;;;14.41;53.50;101204.25;5086161;28;20052;-78
2021/03/16 02:11:18;;;;;;;15.37;4.93;;;;;;;14.53;53.18;101215.16;5084813;28;20040;-77
2021/03/16 02:14:03;;;;;;;7.20;4.10;;;;;;;14.40;53.16;101203.41;5085691;28;20044;-77
2021/03/16 02:16:36;;;;;;;6.27;3.53;;;;;;;14.48;52.94;101215.16;5080921;28;20479;-79
2021/03/16 02:19:10;;;;;;;10.93;5.70;;;;;;;14.46;52.69;101218.25;5085451;28;20044;-78
2021/03/16 02:21:38;;;;;;;15.60;8.07;;;;;;;14.49;52.42;101216.84;5084027;28;20036;-71
2021/03/16 02:24:04;;;;;;;10.70;5.80;;;;;;;14.59;52.25;101216.81;5087182;28;20043;-71
2021/03/16 02:27:17;;;;;;;8.90;5.60;;;;;;;14.62;51.93;101217.06;5083476;28;20073;-73
2021/03/16 02:29:50;;;;;;;14.23;5.17;;;;;;;14.63;51.74;101210.34;5080378;28;20048;-74
2021/03/16 02:32:23;;;;;;;14.80;5.70;;;;;;;14.61;51.33;101192.06;5087040;28;20408;-73
2021/03/16 02:34:58;;;;;;;12.47;4.77;;;;;;;14.69;50.94;101199.88;5085834;28;20126;-71
2021/03/16 02:37:28;;;;;;;10.37;4.73;;;;;;;14.85;50.54;101209.03;5087879;28;20048;-72
2021/03/16 02:39:55;;;;;;;14.80;4.90;;;;;;;14.79;49.99;101199.78;5086951;28;20044;-68
2021/03/16 02:42:26;;;;;;;7.33;4.43;;;;;;;14.90;49.66;101195.75;5081659;28;20049;-70
2021/03/16 02:44:53;;;;;;;5.77;3.67;;;;;;;15.03;49.02;101201.84;5085869;28;20404;-70
2021/03/16 02:47:21;;;;;;;6.43;3.70;;;;;;;15.22;48.33;101202.81;5084438;28;20040;-70
2021/03/16 02:49:49;;;;;;;7.30;3.20;;;;;;;15.39;47.68;101210.81;5086054;28;20193;-69
2021/03/16 02:52:18;;;;;;;4.13;2.40;;;;;;;15.46;47.05;101208.47;5084729;28;20040;-69
2021/03/16 02:54:49;;;;;;;4.25;2.33;;;;;;;15.34;46.51;101157.38;5087541;28;20040;-73
2021/03/16 02:57:16;;;;;;;6.45;3.33;;;;;;;15.74;46.03;101192.69;5087502;28;20507;-68
2021/03/16 02:59:45;;;;;;;5.50;3.00;;;;;;;15.70;45.61;101185.16;5084553;28;20506;-68
2021/03/16 03:02:12;;;;;;;4.87;1.80;;;;;;;15.80;45.61;101196.31;5089182;28;20051;-67
2021/03/16 03:04:41;;;;;;;7.43;4.13;;;;;;;15.84;45.40;101197.38;5086648;28;20127;-74
2021/03/16 03:07:10;;;;;;;3.67;2.17;;;;;;;15.80;45.34;101191.50;5086116;28;20055;-74
2021/03/16 03:09:37;;;;;;;1.83;1.50;;;;;;;15.69;45.18;101194.72;5090151;28;20530;-73
2021/03/16 03:12:06;;;;;;;6.67;3.00;;;;;;;15.81;44.85;101193.19;5089863;28;20047;-74
2021/03/16 03:14:33;;;;;;;4.00;1.93;;;;;;;15.74;44.79;101187.06;5090783;28;20040;-73
2021/03/16 03:17:02;;;;;;;3.10;1.53;;;;;;;15.73;44.81;101184.56;5088199;28;20048;-73
2021/03/16 03:19:28;;;;;;;4.57;2.00;;;;;;;15.71;44.66;101192.47;5086506;28;20059;-73
2021/03/16 03:22:11;;;;;;;2.63;1.30;;;;;;;15.69;44.58;101200.34;5079621;28;20052;-78
2021/03/16 03:24:46;;;;;;;0.43;0.43;;;;;;;15.81;44.43;101192.34;5082691;28;20044;-72
2021/03/16 03:27:38;;;;;;;1.57;1.20;;;;;;;15.76;44.02;101184.81;5091588;28;20131;-73
2021/03/16 03:30:06;;;;;;;4.40;1.70;;;;;;;15.43;44.22;101130.25;5084620;28;20051;-72
2021/03/16 03:32:36;;;;;;;1.13;1.00;;;;;;;15.72;44.14;101182.88;5087973;28;20510;-73
2021/03/16 03:35:06;;;;;;;1.30;1.10;;;;;;;15.72;44.05;101188.50;5088398;28;20465;-72
2021/03/16 03:37:33;;;;;;;3.30;1.40;;;;;;;15.69;43.97;101187.16;5079884;28;20055;-71
2021/03/16 03:40:03;;;;;;;3.90;1.87;;;;;;;15.66;43.90;101184.94;5083465;28;20052;-73
2021/03/16 03:42:31;;;;;;;3.67;1.52;;;;;;;15.63;44.12;101188.31;5086149;28;20044;-68
2021/03/16 03:45:00;;;;;;;5.60;1.93;;;;;;;15.59;44.00;101165.53;5086367;28;20052;-77
2021/03/16 03:47:28;;;;;;;6.47;2.70;;;;;;;15.77;43.88;101189.28;5089044;28;20119;-85
2021/03/16 03:49:55;;;;;;;1.33;1.23;;;;;;;15.54;44.12;101164.75;5090595;28;20048;-74
2021/03/16 03:52:22;;;;;;;3.43;1.43;;;;;;;15.61;44.03;101176.50;5085801;28;20396;-74
2021/03/16 03:54:50;;;;;;;1.67;1.43;;;;;;;15.70;44.05;101179.53;5090312;28;20052;-74
2021/03/16 03:57:17;;;;;;;6.37;2.37;;;;;;;15.46;44.17;101162.59;5086654;28;20558;-80
2021/03/16 03:59:46;;;;;;;1.57;1.10;;;;;;;15.59;43.86;101185.25;5089222;28;20048;-80
2021/03/16 04:02:15;;;;;;;6.75;2.25;;;;;;;15.52;44.07;101179.16;5088305;28;20687;-77
2021/03/16 04:04:42;;;;;;;3.87;1.73;;;;;;;15.40;44.05;101182.34;5089739;28;20106;-81
2021/03/16 04:07:09;;;;;;;2.77;1.33;;;;;;;15.43;43.84;101191.34;5085050;28;20041;-65
2021/03/16 04:09:36;;;;;;;6.50;2.17;;;;;;;15.41;43.99;101200.06;5085838;28;20412;-67
2021/03/16 04:12:04;;;;;;;2.13;1.23;;;;;;;15.41;43.68;101192.47;5089361;28;20567;-75
2021/03/16 04:14:32;;;;;;;2.17;1.67;;;;;;;15.39;43.59;101188.28;5085532;28;20500;-72
2021/03/16 04:16:59;;;;;;;7.30;1.73;;;;;;;15.49;43.40;101184.53;5086410;28;20621;-74
2021/03/16 04:19:27;;;;;;;2.80;2.13;;;;;;;15.39;43.35;101186.31;5081690;28;20046;-73
2021/03/16 04:21:54;;;;;;;3.23;1.77;;;;;;;15.23;43.30;101181.97;5086252;28;20817;-75
2021/03/16 04:24:22;;;;;;;3.77;1.17;;;;;;;15.29;43.46;101191.22;5085611;28;20137;-73
2021/03/16 04:26:48;;;;;;;0.87;0.70;;;;;;;15.25;43.38;101207.00;5090095;28;20498;-73
2021/03/16 04:29:15;;;;;;;1.57;1.20;;;;;;;15.23;43.36;101181.97;5082972;28;20143;-72
2021/03/16 04:31:42;;;;;;;2.20;1.77;;;;;;;15.28;43.46;101198.81;5085828;28;20143;-73
2021/03/16 04:34:09;;;;;;;1.80;1.40;;;;;;;15.20;43.47;101215.50;5080825;28;20048;-72
2021/03/16 04:36:35;;;;;;;0.93;0.87;;;;;;;15.25;43.71;101216.28;5089438;28;20059;-74
2021/03/16 04:39:02;;;;;;;1.87;1.27;;;;;;;15.21;43.46;101212.38;5084811;28;20053;-74
2021/03/16 04:41:28;;;;;;;1.73;0.93;;;;;;;15.28;43.40;101214.84;5082657;28;20503;-74
2021/03/16 04:43:55;;;;;;;1.77;0.77;;;;;;;15.17;43.43;101195.22;5086499;28;20109;-72
2021/03/16 04:46:21;;;;;;;3.47;0.70;;;;;;;15.17;43.29;101200.84;5086567;28;20385;-74
2021/03/16 04:48:47;;;;;;;3.43;1.30;;;;;;;15.22;43.15;101191.56;5084942;28;20041;-72
2021/03/16 04:53:44;;;;;;;2.80;0.85;;;;;;;14.95;43.31;101186.47;5045111;28;20045;-72
2021/03/16 04:56:10;;;;;;;2.80;1.60;;;;;;;15.21;42.93;101215.19;5042281;28;20045;-72
2021/03/16 04:58:38;;;;;;;0.90;0.80;;;;;;;15.25;43.04;101227.53;5030825;28;20049;-72
2021/03/16 05:01:04;;;;;;;4.57;1.90;;;;;;;15.22;42.64;101236.56;5046504;28;20128;-71
2021/03/16 05:03:31;;;;;;;1.43;1.03;;;;;;;15.22;42.56;101238.56;5048184;28;20095;-72
2021/03/16 05:05:57;;;;;;;1.60;1.10;;;;;;;14.69;42.52;101154.88;5048443;28;20052;-67
2021/03/16 05:08:27;;;;;;;3.40;0.98;;;;;;;15.25;42.42;101247.25;5047212;28;20056;-68
2021/03/16 05:10:53;;;;;;;1.00;0.77;;;;;;;15.20;42.38;101240.81;5046655;28;20075;-71
2021/03/16 05:13:20;;;;;;;5.77;1.30;;;;;;;15.24;42.10;101223.03;5048148;28;20402;-69
2021/03/16 05:15:47;;;;;;;5.67;1.80;;;;;;;15.31;42.05;101243.22;5043152;28;20045;-68
2021/03/16 05:18:14;;;;;;;1.47;0.70;;;;;;;15.20;42.02;101244.44;5045889;28;20056;-70
2021/03/16 05:20:42;;;;;;;2.23;0.80;;;;;;;15.12;42.13;101236.66;5048322;28;20478;-73
2021/03/16 05:23:08;;;;;;;1.80;1.17;;;;;;;15.13;42.20;101249.59;5045205;28;20049;-71
2021/03/16 05:25:34;;;;;;;2.40;1.53;;;;;;;15.15;42.25;101252.97;5046728;28;20305;-68
2021/03/16 05:28:01;;;;;;;1.10;0.63;;;;;;;15.03;42.34;101253.31;5048570;28;20417;-67
2021/03/16 05:30:27;;;;;;;0.63;0.60;;;;;;;15.00;42.37;101259.53;5047771;28;20135;-66
2021/03/16 05:32:55;;;;;;;1.20;0.73;;;;;;;15.11;42.31;101268.72;5047161;28;20052;-67
2021/03/16 05:35:23;;;;;;;4.80;0.93;;;;;;;15.11;42.31;101263.97;5046888;28;20063;-65
2021/03/16 05:37:49;;;;;;;4.00;0.90;;;;;;;15.08;42.41;101277.78;5042432;28;20056;-66
2021/03/16 05:40:16;;;;;;;3.40;1.20;;;;;;;14.90;42.47;101285.75;5046666;28;20045;-66
2021/03/16 05:42:42;;;;;;;5.73;1.17;;;;;;;14.89;42.57;101281.25;5048292;28;20049;-66
2021/03/16 05:45:10;;;;;;;0.90;0.67;;;;;;;14.92;42.60;101272.25;5043556;28;20139;-64
2021/03/16 05:47:38;;;;;;;0.30;0.30;;;;;;;14.96;42.33;101294.16;5047959;28;20044;-64
2021/03/16 05:50:05;;;;;;;3.27;1.30;;;;;;;14.97;42.37;101273.34;5041003;28;20041;-63
2021/03/16 05:52:32;;;;;;;0.67;0.60;;;;;;;14.89;42.56;101280.44;5046491;28;20552;-66
2021/03/16 05:54:59;;;;;;;1.00;1.00;;;;;;;14.81;42.63;101273.47;5045048;28;20045;-68
2021/03/16 05:57:28;;;;;;;1.40;0.83;;;;;;;14.75;42.67;101291.47;5043372;28;20045;-69
2021/03/16 05:59:55;;;;;;;1.50;1.10;;;;;;;14.61;42.92;101287.66;5024126;28;20045;-72
2021/03/16 06:02:21;;;;;;;4.47;1.43;;;;;;;14.61;42.94;101293.25;5045397;28;20051;-71
2021/03/16 06:04:48;;;;;;;2.53;1.23;;;;;;;14.46;42.96;101275.31;5045482;28;20064;-70
2021/03/16 06:07:15;;;;;;;0.80;0.70;;;;;;;14.48;43.06;101294.69;5048282;28;20041;-69
2021/03/16 06:09:42;;;;;;;2.00;0.77;;;;;;;14.56;42.96;101301.72;5046081;28;20079;-70
2021/03/16 06:12:10;;;;;;;5.13;1.23;;;;;;;14.55;43.06;101316.91;5047990;28;20652;-70
2021/03/16 06:14:49;;;;;;;4.75;1.65;;;;;;;14.43;43.17;101309.63;5045680;28;20533;-69
2021/03/16 06:17:16;;;;;;;1.67;1.30;;;;;;;14.37;42.92;101305.16;5046298;28;20045;-70
2021/03/16 06:19:43;;;;;;;2.67;1.03;;;;;;;14.27;43.20;101293.94;5048014;28;20041;-69
2021/03/16 06:22:16;;;;;;;1.60;0.73;;;;;;;14.40;43.12;101306.56;5042689;28;20041;-69
2021/03/16 06:24:45;;;;;;;0.67;0.67;;;;;;;14.27;43.32;101301.53;5044878;28;20037;-72
2021/03/16 06:27:25;;;;;;;1.00;0.90;;;;;;;14.39;43.22;101307.66;5046954;28;20079;-69
2021/03/16 06:29:52;;;;;;;;;;;;;;;14.34;43.32;101307.69;5046794;28;20127;-69
2021/03/16 06:32:18;;;;;;;1.80;1.30;;;;;;;14.17;43.56;101282.75;5041330;28;19921;-70
2021/03/16 06:34:45;;;;;;;2.47;1.13;;;;;;;14.15;43.60;101332.75;5041273;28;20561;-72
2021/03/16 06:37:17;;;;;;;3.37;0.90;;;;;;;14.07;44.07;101317.34;5048937;28;22170;-81
2021/03/16 06:39:44;;;;;;;0.87;0.83;;;;;;;14.07;44.24;101308.06;5050916;28;20052;-66
2021/03/16 06:42:27;;;;;;;1.30;0.90;;;;;;;14.05;44.12;101308.38;5048488;28;20529;-64
2021/03/16 06:45:05;;;;;;;4.10;0.83;;;;;;;13.95;44.16;101308.41;5050522;28;20045;-63
2021/03/16 06:47:42;;;;;;;2.47;1.67;;;;;;;13.83;44.37;101305.88;5051682;28;20625;-67
2021/03/16 06:50:11;;;;;;;5.10;0.97;;;;;;;13.91;44.85;101324.97;5047393;28;20471;-66
2021/03/16 06:52:38;;;;;;;2.58;1.10;;;;;;;13.63;44.45;101249.78;5047939;28;20136;-68
2021/03/16 06:55:11;;;;;;;9.43;0.93;;;;;;;13.64;44.35;101257.94;5047686;28;20055;-67
2021/03/16 06:57:38;;;;;;;4.20;1.03;;;;;;;13.99;44.50;101313.16;5045291;28;20080;-64
2021/03/16 07:00:10;;;;;;;1.07;0.83;;;;;;;13.73;44.64;101263.81;5046065;28;20513;-63
2021/03/16 07:02:39;;;;;;;10.90;1.77;;;;;;;13.75;45.20;101326.97;5047924;28;20076;-62
2021/03/16 07:05:06;;;;;;;3.67;1.33;;;;;;;13.61;45.55;101322.22;5044201;28;20045;-62
2021/03/16 07:07:33;;;;;;;2.00;0.90;;;;;;;13.46;45.63;101295.84;5040359;28;20045;-63
2021/03/16 07:10:02;;;;;;;1.63;1.53;;;;;;;13.58;45.58;101314.38;5045002;28;20045;-63
2021/03/16 07:12:34;;;;;;;4.20;1.40;;;;;;;13.67;45.57;101340.72;5046985;28;20037;-70
2021/03/16 07:15:02;;;;;;;4.17;1.50;;;;;;;13.75;45.37;101331.75;5048507;28;20675;-61
2021/03/16 07:17:29;;;;;;;3.93;1.17;;;;;;;13.78;45.17;101341.53;5040622;28;20655;-65
2021/03/16 07:20:19;;;;;;;2.53;1.50;;;;;;;13.80;44.82;101340.13;5046713;28;20080;-63
2021/03/16 07:22:51;;;;;;;3.27;0.90;;;;;;;13.93;44.73;101350.78;5034288;28;20152;-64
2021/03/16 07:25:19;;;;;;;1.23;0.90;;;;;;;14.08;43.98;101335.84;5039921;28;20053;-63
2021/03/16 07:27:46;;;;;;;1.33;1.20;;;;;;;14.09;44.18;101340.38;5044564;28;20076;-63
2021/03/16 07:30:30;;;;;;;1.53;1.33;;;;;;;14.15;43.84;101346.78;5046153;28;20049;-64
2021/03/16 07:32:59;;;;;;;1.57;1.10;;;;;;;14.24;43.93;101339.47;5043788;28;20047;-64
2021/03/16 07:35:26;;;;;;;1.47;1.37;;;;;;;14.25;43.59;101334.69;5046747;28;20440;-64
2021/03/16 07:37:55;;;;;;;2.63;1.30;;;;;;;14.37;43.42;101352.09;5042975;28;20049;-63
2021/03/16 07:40:21;;;;;;;1.57;0.90;;;;;;;14.41;43.08;101351.22;5051210;28;20076;-64
2021/03/16 07:42:49;;;;;;;1.50;1.20;;;;;;;14.45;42.73;101346.69;5048298;28;20076;-64
2021/03/16 07:45:31;;;;;;;1.10;1.00;;;;;;;14.53;42.69;101344.44;5044207;28;20053;-64
2021/03/16 07:47:58;;;;;;;2.00;1.10;;;;;;;14.72;42.43;101364.31;5045994;28;20231;-63
2021/03/16 07:50:30;;;;;;;1.17;1.00;;;;;;;14.88;41.94;101366.78;5048211;28;20099;-65
2021/03/16 07:52:56;;;;;;;1.90;1.23;;;;;;;15.25;41.38;101368.22;5022795;28;20057;-63
2021/03/16 07:55:30;;;;;;;3.63;2.40;;;;;;;15.82;40.55;101372.28;5045262;28;20044;-62
2021/03/16 07:58:15;;;;;;;3.90;1.37;;;;;;;16.29;39.77;101370.66;5042079;28;20045;-63
2021/03/16 08:01:06;;;;;;;2.10;1.70;;;;;;;16.54;38.52;101357.41;5043728;28;20045;-64
2021/03/16 08:03:33;;;;;;;3.50;1.20;;;;;;;16.91;37.96;101390.50;5044253;28;20044;-62
2021/03/16 08:05:59;;;;;;;0.73;0.73;;;;;;;17.12;37.72;101388.25;5046183;28;20052;-65
2021/03/16 08:08:37;;;;;;;10.60;2.23;;;;;;;17.27;36.61;101384.38;5049602;28;20517;-62
2021/03/16 08:11:12;;;;;;;0.83;0.77;;;;;;;17.34;36.47;101358.59;5049893;28;20477;-61
2021/03/16 08:13:39;;;;;;;8.43;2.23;;;;;;;17.92;36.30;101392.94;5046587;28;20178;-63
2021/03/16 08:16:11;;;;;;;0.60;0.60;;;;;;;17.92;35.46;101363.84;5047894;28;20052;-64
2021/03/16 08:18:38;;;;;;;2.47;1.05;;;;;;;17.92;35.41;101400.56;5048218;28;20041;-64
2021/03/16 08:21:12;;;;;;;1.92;1.20;;;;;;;17.76;35.08;101383.88;5050622;28;20128;-62
2021/03/16 08:23:39;;;;;;;2.58;1.33;;;;;;;17.97;35.11;101373.03;5047117;28;20485;-62
2021/03/16 08:26:09;;;;;;;4.68;1.15;;;;;;;18.39;34.20;101395.72;5050927;28;20045;-63
2021/03/16 08:28:35;;;;;;;1.35;0.82;;;;;;;18.55;34.48;101414.06;5050973;28;20037;-63
2021/03/16 08:31:15;;;;;;;2.55;1.15;;;;;;;18.57;33.80;101397.63;5050300;28;20053;-63
2021/03/16 08:33:41;;;;;;;3.78;1.80;;;;;;;18.57;33.45;101420.25;5050676;28;20132;-63
2021/03/16 08:36:10;;;;;;;2.33;1.10;;;;;;;18.86;33.25;101394.47;5050250;28;20056;-63
2021/03/16 08:38:36;;;;;;;2.42;1.30;;;;;;;18.78;33.27;101422.69;5046052;28;20373;-62
2021/03/16 08:41:15;;;;;;;1.55;0.70;;;;;;;18.80;32.99;101415.56;5050279;28;20509;-63
2021/03/16 08:43:46;;;;;;;6.68;1.88;;;;;;;18.89;32.89;101416.50;5045538;28;20040;-63
2021/03/16 08:46:13;;;;;;;4.35;1.73;;;;;;;18.64;32.94;101364.09;5046375;28;20442;-62
2021/03/16 08:48:42;;;;;;;9.75;2.08;;;;;;;19.23;32.57;101409.53;5044938;28;20134;-63
2021/03/16 08:51:11;;;;;;;4.05;1.75;;;;;;;19.65;32.15;101411.09;5049933;28;20044;-62
2021/03/16 08:53:44;;;;;;;4.05;1.50;;;;;;;19.85;31.80;101425.91;5048303;28;20049;-64
2021/03/16 08:56:10;;;;;;;5.40;1.50;;;;;;;19.78;31.46;101422.69;5048915;28;20060;-63
2021/03/16 08:58:36;;;;;;;4.82;1.50;;;;;;;20.30;31.71;101421.03;5021268;28;20048;-62
2021/03/16 09:01:03;;;;;;;9.02;2.20;;;;;;;20.97;31.46;101422.84;5045089;28;20060;-63
2021/03/16 09:03:30;;;;;;;1.65;1.05;;;;;;;21.47;30.92;101428.16;5047017;28;20186;-63
2021/03/16 09:05:57;;;;;;;5.80;1.73;;;;;;;21.26;30.15;101427.06;5040505;28;20098;-62
2021/03/16 09:08:24;;;;;;;3.78;1.15;;;;;;;21.24;30.14;101432.25;5049490;28;20041;-62
2021/03/16 09:10:51;;;;;;;6.22;1.88;;;;;;;20.94;29.91;101416.97;5042610;28;20417;-62
2021/03/16 09:13:28;;;;;;;5.15;1.52;;;;;;;20.97;29.84;101428.53;5044014;28;20041;-61
2021/03/16 09:15:54;;;;;;;7.28;2.05;;;;;;;20.91;29.58;101423.31;5042850;28;20157;-62
2021/03/16 09:18:32;;;;;;;4.85;2.05;;;;;;;21.24;29.83;101421.72;5041856;28;20044;-64
2021/03/16 09:21:05;;;;;;;8.50;1.48;;;;;;;21.80;29.47;101423.94;5042883;28;20103;-63
2021/03/16 09:23:31;;;;;;;6.65;1.98;;;;;;;22.10;29.19;101405.84;5046486;28;20529;-64
2021/03/16 09:25:58;;;;;;;5.90;2.10;;;;;;;22.78;28.70;101420.19;5045330;28;20087;-62
2021/03/16 09:28:30;;;;;;;3.47;1.90;;;;;;;22.71;28.12;101343.03;5046224;28;20401;-63
2021/03/16 09:30:58;;;;;;;6.60;2.25;;;;;;;23.46;27.67;101425.00;5043521;28;20053;-63
2021/03/16 09:33:25;;;;;;;3.20;1.77;;;;;;;23.38;27.33;101419.03;5047216;28;20045;-63
2021/03/16 09:35:56;;;;;;;5.45;2.00;;;;;;;23.02;27.21;101411.03;5046701;28;20067;-62
2021/03/16 09:38:23;;;;;;;2.65;1.27;;;;;;;22.80;27.30;101409.28;5046687;28;20135;-62
2021/03/16 09:40:49;;;;;;;4.47;2.00;;;;;;;22.87;27.30;101403.91;5048432;28;20047;-64
2021/03/16 09:43:22;;;;;;;5.40;1.40;;;;;;;23.32;27.27;101420.41;5047032;28;20690;-63
2021/03/16 09:46:00;;;;;;;8.32;2.63;;;;;;;23.22;26.43;101395.16;5044531;28;20037;-63
2021/03/16 09:48:27;;;;;;;1.55;1.15;;;;;;;23.29;26.61;101431.66;5045293;28;20048;-63
2021/03/16 09:50:56;;;;;;;3.33;1.50;;;;;;;22.66;26.57;101425.75;5047567;28;20061;-63
2021/03/16 09:53:23;;;;;;;3.30;1.70;;;;;;;22.61;26.32;101406.03;5044479;28;20053;-63
2021/03/16 09:56:00;;;;;;;3.90;1.83;;;;;;;22.39;26.38;101390.91;5043625;28;20053;-63
2021/03/16 09:58:29;;;;;;;6.18;1.80;;;;;;;22.79;26.73;101403.94;5045814;28;20055;-67
2021/03/16 10:00:56;;;;;;;3.92;1.33;;;;;;;22.89;26.81;101387.28;5046991;28;20056;-62
2021/03/16 10:03:24;;;;;;;0.75;0.70;;;;;;;22.43;26.53;101371.97;5043002;28;20045;-62
2021/03/16 10:06:01;;;;;;;3.13;1.58;;;;;;;21.77;26.71;101386.47;5044557;28;20433;-62
2021/03/16 10:08:28;;;;;;;5.70;1.80;;;;;;;21.86;26.60;101405.56;5043733;28;20045;-62
2021/03/16 10:10:55;;;;;;;5.43;1.77;;;;;;;21.93;26.68;101383.13;5048686;28;20497;-63
2021/03/16 10:13:35;;;;;;;5.43;1.80;;;;;;;21.83;26.58;101398.53;5046074;28;20040;-63
2021/03/16 10:16:10;;;;;;;6.03;2.33;;;;;;;22.16;26.89;101389.47;5047349;28;20079;-63
2021/03/16 10:18:44;;;;;;;3.10;1.50;;;;;;;22.41;26.86;101365.75;5044430;28;20045;-63
2021/03/16 10:21:14;;;;;;;2.05;1.65;;;;;;;22.39;26.27;101395.72;5049017;28;20037;-62
2021/03/16 10:23:41;;;;;;;0.88;0.88;;;;;;;22.21;26.72;101380.72;5047649;28;20047;-63
2021/03/16 10:26:10;;;;;;;3.17;2.00;;;;;;;22.00;26.65;101398.50;5047992;28;20041;-62
2021/03/16 10:28:39;;;;;;;3.50;1.90;;;;;;;22.15;26.85;101387.78;5048558;28;20048;-63
2021/03/16 10:31:12;;;;;;;9.10;1.75;;;;;;;22.98;26.32;101384.44;5045465;28;20061;-63
2021/03/16 10:33:39;;;;;;;2.65;1.15;;;;;;;23.71;26.33;101392.59;5043516;28;20541;-62
2021/03/16 10:36:07;;;;;;;5.22;2.13;;;;;;;23.76;25.96;101375.28;5047029;28;20486;-63
2021/03/16 10:38:34;;;;;;;7.25;2.30;;;;;;;23.52;25.25;101389.38;5049855;28;20052;-62
2021/03/16 10:41:00;;;;;;;3.92;1.55;;;;;;;22.90;25.64;101388.13;5050648;28;20049;-63
2021/03/16 10:43:27;;;;;;;5.45;2.65;;;;;;;22.52;26.29;101386.13;5048766;28;20129;-63
2021/03/16 10:45:57;;;;;;;6.97;2.25;;;;;;;22.38;26.24;101380.66;5045038;28;20516;-63
2021/03/16 10:48:26;;;;;;;2.75;1.42;;;;;;;22.12;26.13;101379.88;5050643;28;20037;-62
2021/03/16 10:50:53;;;;;;;3.55;1.70;;;;;;;22.07;26.63;101375.22;5049379;28;20076;-62
2021/03/16 10:53:20;;;;;;;7.30;2.10;;;;;;;22.23;26.70;101367.84;5046704;28;20963;-62
2021/03/16 10:55:59;;;;;;;7.68;2.42;;;;;;;22.73;26.17;101349.19;5047600;28;20179;-62
2021/03/16 10:58:27;;;;;;;1.83;1.50;;;;;;;23.09;25.72;101376.31;5046134;28;20101;-63
2021/03/16 11:00:53;;;;;;;1.90;1.40;;;;;;;22.99;26.03;101371.03;5047913;28;20063;-64
2021/03/16 11:03:27;;;;;;;4.05;1.83;;;;;;;22.75;25.99;101378.16;5047317;28;20052;-63
2021/03/16 11:05:54;;;;;;;9.95;3.08;;;;;;;22.73;25.82;101363.41;5041598;28;20067;-61
2021/03/16 11:08:21;;;;;;;3.15;2.00;;;;;;;22.75;25.97;101371.63;5046466;28;20060;-62
2021/03/16 11:10:47;;;;;;;4.32;2.60;;;;;;;22.88;25.77;101354.31;5047097;28;20055;-63
2021/03/16 11:13:14;;;;;;;5.28;2.78;;;;;;;23.18;25.44;101351.44;5049654;28;20131;-64
2021/03/16 11:15:40;;;;;;;5.70;2.45;;;;;;;23.71;25.37;101357.56;5049919;28;20090;-64
2021/03/16 11:18:07;;;;;;;5.88;3.40;;;;;;;23.96;25.39;101350.72;5046006;28;20045;-64
2021/03/16 11:20:36;;;;;;;6.38;3.03;;;;;;;24.64;25.33;101338.84;5044559;28;20049;-65
2021/03/16 11:23:03;;;;;;;7.80;3.63;;;;;;;24.70;24.50;101337.41;5047395;28;20041;-64
2021/03/16 11:25:29;;;;;;;6.30;3.42;;;;;;;25.64;24.71;101338.25;5049459;28;20063;-63
2021/03/16 11:27:55;;;;;;;5.68;3.15;;;;;;;26.92;23.67;101338.03;5042521;28;20037;-63
2021/03/16 11:30:22;;;;;;;16.48;6.68;;;;;;;27.11;22.87;101338.06;5048032;28;20041;-64
2021/03/16 11:32:48;;;;;;;4.43;1.88;;;;;;;26.56;22.64;101340.00;5047976;28;20036;-63
2021/03/16 11:35:15;;;;;;;7.07;3.35;;;;;;;25.77;22.83;101337.84;5045608;28;20059;-65